Weather at Katrineholm Airfield

Public forecast

Using degrees Celsius for public forecast. Weather courtesy of forecast.io.

Closest aviation weather report (METAR) to Katrineholm Airfield

Closest report is Stockholm Skavsta Airport, 25.6 nm (47.5 km) ESE. Retrieved 2022/06/30 09:20 UTC (23 minutes ago):

ESKN 300920Z 14006KT 9999 FEW020 BKN031 22/18 Q1017

Closest aviation forecast (TAF) to Katrineholm Airfield

Closest forecast is Stockholm Skavsta Airport, 25.6 nm (47.5 km) ESE. Retrieved 2022/06/30 09:42 UTC (41 seconds ago):

TAF TAF ESKN 300830Z 3009/0109 VRB03KT 9999 BKN035 TEMPO 3009/3021 SHRA SCT025CB PROB40 3011/3014 2500 TSRA BKN014 BKN030CB PROB40 3022/0103 0300 FG VV002 PROB40 0103/0109 4000 SHRA BKN008 BKN025CB